sensor_id;sensor_type;location;lat;lon;timestamp;temperature;humidity
7046;DHT22;3564;53.326;10.356;2023-11-19T00:00:09;9.80;99.90
7046;DHT22;3564;53.326;10.356;2023-11-19T00:02:41;9.80;99.90
7046;DHT22;3564;53.326;10.356;2023-11-19T00:05:07;9.80;99.90
7046;DHT22;3564;53.326;10.356;2023-11-19T00:07:37;9.80;99.90
7046;DHT22;3564;53.326;10.356;2023-11-19T00:10:11;9.80;99.90
7046;DHT22;3564;53.326;10.356;2023-11-19T00:12:42;9.80;99.90
7046;DHT22;3564;53.326;10.356;2023-11-19T00:15:08;9.80;99.90
7046;DHT22;3564;53.326;10.356;2023-11-19T00:17:40;9.80;99.90
7046;DHT22;3564;53.326;10.356;2023-11-19T00:20:08;9.80;99.90
7046;DHT22;3564;53.326;10.356;2023-11-19T00:22:33;9.80;99.90
7046;DHT22;3564;53.326;10.356;2023-11-19T00:24:59;9.80;99.90
7046;DHT22;3564;53.326;10.356;2023-11-19T00:27:25;9.80;99.90
7046;DHT22;3564;53.326;10.356;2023-11-19T00:29:51;9.80;99.90
7046;DHT22;3564;53.326;10.356;2023-11-19T00:32:17;9.80;99.90
7046;DHT22;3564;53.326;10.356;2023-11-19T00:34:45;9.80;99.90
7046;DHT22;3564;53.326;10.356;2023-11-19T00:37:13;9.80;99.90
7046;DHT22;3564;53.326;10.356;2023-11-19T00:39:39;9.80;99.90
7046;DHT22;3564;53.326;10.356;2023-11-19T00:42:05;9.80;99.90
7046;DHT22;3564;53.326;10.356;2023-11-19T00:44:31;9.80;99.90
7046;DHT22;3564;53.326;10.356;2023-11-19T00:46:56;9.80;99.90
7046;DHT22;3564;53.326;10.356;2023-11-19T00:49:22;9.80;99.90
7046;DHT22;3564;53.326;10.356;2023-11-19T00:51:47;9.80;99.90
7046;DHT22;3564;53.326;10.356;2023-11-19T00:54:14;9.80;99.90
7046;DHT22;3564;53.326;10.356;2023-11-19T00:56:40;9.90;99.90
7046;DHT22;3564;53.326;10.356;2023-11-19T00:59:05;9.90;99.90
7046;DHT22;3564;53.326;10.356;2023-11-19T01:01:31;9.90;99.90
7046;DHT22;3564;53.326;10.356;2023-11-19T01:03:57;9.80;99.90
7046;DHT22;3564;53.326;10.356;2023-11-19T01:06:30;9.80;99.90
7046;DHT22;3564;53.326;10.356;2023-11-19T01:08:56;9.80;99.90
7046;DHT22;3564;53.326;10.356;2023-11-19T01:11:24;9.80;99.90
7046;DHT22;3564;53.326;10.356;2023-11-19T01:13:51;9.80;99.90
7046;DHT22;3564;53.326;10.356;2023-11-19T01:16:17;9.80;99.90
7046;DHT22;3564;53.326;10.356;2023-11-19T01:18:43;9.80;99.90
7046;DHT22;3564;53.326;10.356;2023-11-19T01:21:09;9.80;99.90
7046;DHT22;3564;53.326;10.356;2023-11-19T01:23:35;9.80;99.90
7046;DHT22;3564;53.326;10.356;2023-11-19T01:26:01;9.80;99.90
7046;DHT22;3564;53.326;10.356;2023-11-19T01:28:26;9.90;99.90
7046;DHT22;3564;53.326;10.356;2023-11-19T01:30:52;9.90;99.90
7046;DHT22;3564;53.326;10.356;2023-11-19T01:33:18;9.90;99.90
7046;DHT22;3564;53.326;10.356;2023-11-19T01:35:43;9.90;99.90
7046;DHT22;3564;53.326;10.356;2023-11-19T01:38:09;9.90;99.90
7046;DHT22;3564;53.326;10.356;2023-11-19T01:40:36;9.90;99.90
7046;DHT22;3564;53.326;10.356;2023-11-19T01:43:02;9.90;99.90
7046;DHT22;3564;53.326;10.356;2023-11-19T01:45:31;9.90;99.90
7046;DHT22;3564;53.326;10.356;2023-11-19T01:47:57;10.00;99.90
7046;DHT22;3564;53.326;10.356;2023-11-19T01:50:24;9.90;99.90
7046;DHT22;3564;53.326;10.356;2023-11-19T01:52:52;9.90;99.90
7046;DHT22;3564;53.326;10.356;2023-11-19T01:55:22;9.90;99.90
7046;DHT22;3564;53.326;10.356;2023-11-19T01:57:49;9.90;99.90
7046;DHT22;3564;53.326;10.356;2023-11-19T02:00:15;10.00;99.90
7046;DHT22;3564;53.326;10.356;2023-11-19T02:02:42;10.00;99.90
7046;DHT22;3564;53.326;10.356;2023-11-19T02:05:09;10.00;99.90
7046;DHT22;3564;53.326;10.356;2023-11-19T02:07:36;9.90;99.90
7046;DHT22;3564;53.326;10.356;2023-11-19T02:10:01;10.00;99.90
7046;DHT22;3564;53.326;10.356;2023-11-19T02:12:31;10.00;99.90
7046;DHT22;3564;53.326;10.356;2023-11-19T02:15:02;10.00;99.90
7046;DHT22;3564;53.326;10.356;2023-11-19T02:17:31;10.00;99.90
7046;DHT22;3564;53.326;10.356;2023-11-19T02:19:57;10.00;99.90
7046;DHT22;3564;53.326;10.356;2023-11-19T02:22:24;10.00;99.90
7046;DHT22;3564;53.326;10.356;2023-11-19T02:24:57;10.00;99.90
7046;DHT22;3564;53.326;10.356;2023-11-19T02:30:12;10.00;99.90
7046;DHT22;3564;53.326;10.356;2023-11-19T02:32:42;10.00;99.90
7046;DHT22;3564;53.326;10.356;2023-11-19T02:35:08;10.00;99.90
7046;DHT22;3564;53.326;10.356;2023-11-19T02:37:38;10.00;99.90
7046;DHT22;3564;53.326;10.356;2023-11-19T02:40:05;10.00;99.90
7046;DHT22;3564;53.326;10.356;2023-11-19T02:42:34;10.00;99.90
7046;DHT22;3564;53.326;10.356;2023-11-19T02:44:59;10.00;99.90
7046;DHT22;3564;53.326;10.356;2023-11-19T02:47:25;10.00;99.90
7046;DHT22;3564;53.326;10.356;2023-11-19T02:49:51;10.00;99.90
7046;DHT22;3564;53.326;10.356;2023-11-19T02:52:18;10.00;99.90
7046;DHT22;3564;53.326;10.356;2023-11-19T02:54:44;10.00;99.90
7046;DHT22;3564;53.326;10.356;2023-11-19T02:57:10;10.00;99.90
7046;DHT22;3564;53.326;10.356;2023-11-19T02:59:39;10.10;99.90
7046;DHT22;3564;53.326;10.356;2023-11-19T03:02:07;10.10;99.90
7046;DHT22;3564;53.326;10.356;2023-11-19T03:04:37;10.10;99.90
7046;DHT22;3564;53.326;10.356;2023-11-19T03:07:06;10.10;99.90
7046;DHT22;3564;53.326;10.356;2023-11-19T03:09:33;10.10;99.90
7046;DHT22;3564;53.326;10.356;2023-11-19T03:11:59;10.10;99.90
7046;DHT22;3564;53.326;10.356;2023-11-19T03:14:25;10.10;99.90
7046;DHT22;3564;53.326;10.356;2023-11-19T03:16:51;10.10;99.90
7046;DHT22;3564;53.326;10.356;2023-11-19T03:19:16;10.10;99.90
7046;DHT22;3564;53.326;10.356;2023-11-19T03:21:42;10.10;99.90
7046;DHT22;3564;53.326;10.356;2023-11-19T03:24:07;10.10;99.90
7046;DHT22;3564;53.326;10.356;2023-11-19T03:26:34;10.10;99.90
7046;DHT22;3564;53.326;10.356;2023-11-19T03:28:59;10.10;99.90
7046;DHT22;3564;53.326;10.356;2023-11-19T03:31:26;10.20;99.90
7046;DHT22;3564;53.326;10.356;2023-11-19T03:33:51;10.20;99.90
7046;DHT22;3564;53.326;10.356;2023-11-19T03:36:17;10.20;99.90
7046;DHT22;3564;53.326;10.356;2023-11-19T03:38:43;10.20;99.90
7046;DHT22;3564;53.326;10.356;2023-11-19T03:41:12;10.20;99.90
7046;DHT22;3564;53.326;10.356;2023-11-19T03:43:38;10.20;99.90
7046;DHT22;3564;53.326;10.356;2023-11-19T03:46:05;10.30;99.90
7046;DHT22;3564;53.326;10.356;2023-11-19T03:48:31;10.20;99.90
7046;DHT22;3564;53.326;10.356;2023-11-19T03:50:56;10.30;99.90
7046;DHT22;3564;53.326;10.356;2023-11-19T03:53:22;10.30;99.90
7046;DHT22;3564;53.326;10.356;2023-11-19T03:55:51;10.30;99.90
7046;DHT22;3564;53.326;10.356;2023-11-19T03:58:17;10.30;99.90
7046;DHT22;3564;53.326;10.356;2023-11-19T04:00:43;10.30;99.90
7046;DHT22;3564;53.326;10.356;2023-11-19T04:03:08;10.30;99.90
7046;DHT22;3564;53.326;10.356;2023-11-19T04:05:34;10.30;99.90
7046;DHT22;3564;53.326;10.356;2023-11-19T04:07:59;10.30;99.90
7046;DHT22;3564;53.326;10.356;2023-11-19T04:10:25;10.30;99.90
7046;DHT22;3564;53.326;10.356;2023-11-19T04:12:52;10.40;99.90
7046;DHT22;3564;53.326;10.356;2023-11-19T04:15:18;10.40;99.90
7046;DHT22;3564;53.326;10.356;2023-11-19T04:17:43;10.40;99.90
7046;DHT22;3564;53.326;10.356;2023-11-19T04:20:09;10.40;99.90
7046;DHT22;3564;53.326;10.356;2023-11-19T04:22:39;10.50;99.90
7046;DHT22;3564;53.326;10.356;2023-11-19T04:25:05;10.50;99.90
7046;DHT22;3564;53.326;10.356;2023-11-19T04:27:30;10.50;99.90
7046;DHT22;3564;53.326;10.356;2023-11-19T04:29:56;10.50;99.90
7046;DHT22;3564;53.326;10.356;2023-11-19T04:32:22;10.50;99.90
7046;DHT22;3564;53.326;10.356;2023-11-19T04:34:47;10.50;99.90
7046;DHT22;3564;53.326;10.356;2023-11-19T04:37:13;10.60;99.90
7046;DHT22;3564;53.326;10.356;2023-11-19T04:39:38;10.60;99.90
7046;DHT22;3564;53.326;10.356;2023-11-19T04:42:04;10.60;99.90
7046;DHT22;3564;53.326;10.356;2023-11-19T04:44:32;10.60;99.90
7046;DHT22;3564;53.326;10.356;2023-11-19T04:46:57;10.60;99.90
7046;DHT22;3564;53.326;10.356;2023-11-19T04:49:24;10.70;99.90
7046;DHT22;3564;53.326;10.356;2023-11-19T04:51:52;10.70;99.90
7046;DHT22;3564;53.326;10.356;2023-11-19T04:54:17;10.70;99.90
7046;DHT22;3564;53.326;10.356;2023-11-19T04:56:47;10.70;99.90
7046;DHT22;3564;53.326;10.356;2023-11-19T04:59:13;10.80;99.90
7046;DHT22;3564;53.326;10.356;2023-11-19T05:01:39;10.80;99.90
7046;DHT22;3564;53.326;10.356;2023-11-19T05:04:04;10.80;99.90
7046;DHT22;3564;53.326;10.356;2023-11-19T05:06:31;10.90;99.90
7046;DHT22;3564;53.326;10.356;2023-11-19T05:08:59;10.90;99.90
7046;DHT22;3564;53.326;10.356;2023-11-19T05:11:30;10.90;99.90
7046;DHT22;3564;53.326;10.356;2023-11-19T05:13:55;11.00;99.90
7046;DHT22;3564;53.326;10.356;2023-11-19T05:16:21;11.00;99.90
7046;DHT22;3564;53.326;10.356;2023-11-19T05:18:47;11.10;99.90
7046;DHT22;3564;53.326;10.356;2023-11-19T05:21:12;11.10;99.90
7046;DHT22;3564;53.326;10.356;2023-11-19T05:23:38;11.10;99.90
7046;DHT22;3564;53.326;10.356;2023-11-19T05:26:04;11.20;99.90
7046;DHT22;3564;53.326;10.356;2023-11-19T05:28:30;11.20;99.90
7046;DHT22;3564;53.326;10.356;2023-11-19T05:30:56;11.30;99.90
7046;DHT22;3564;53.326;10.356;2023-11-19T05:33:22;11.30;99.90
7046;DHT22;3564;53.326;10.356;2023-11-19T05:35:47;11.30;99.90
7046;DHT22;3564;53.326;10.356;2023-11-19T05:38:13;11.40;99.90
7046;DHT22;3564;53.326;10.356;2023-11-19T05:40:38;11.40;99.90
7046;DHT22;3564;53.326;10.356;2023-11-19T05:43:04;11.50;99.90
7046;DHT22;3564;53.326;10.356;2023-11-19T05:45:31;11.50;99.90
7046;DHT22;3564;53.326;10.356;2023-11-19T05:47:57;11.50;99.90
7046;DHT22;3564;53.326;10.356;2023-11-19T05:50:23;11.60;99.90
7046;DHT22;3564;53.326;10.356;2023-11-19T05:52:49;11.60;99.90
7046;DHT22;3564;53.326;10.356;2023-11-19T05:55:15;11.70;99.90
7046;DHT22;3564;53.326;10.356;2023-11-19T05:57:40;11.70;99.90
7046;DHT22;3564;53.326;10.356;2023-11-19T06:00:10;11.70;99.90
7046;DHT22;3564;53.326;10.356;2023-11-19T06:02:38;11.70;99.90
7046;DHT22;3564;53.326;10.356;2023-11-19T06:05:05;11.80;99.90
7046;DHT22;3564;53.326;10.356;2023-11-19T06:07:34;11.80;99.90
7046;DHT22;3564;53.326;10.356;2023-11-19T06:10:00;11.80;99.90
7046;DHT22;3564;53.326;10.356;2023-11-19T06:12:26;11.80;99.90
7046;DHT22;3564;53.326;10.356;2023-11-19T06:14:53;11.90;99.90
7046;DHT22;3564;53.326;10.356;2023-11-19T06:17:21;11.90;99.90
7046;DHT22;3564;53.326;10.356;2023-11-19T06:19:47;11.90;99.90
7046;DHT22;3564;53.326;10.356;2023-11-19T06:22:12;11.90;99.90
7046;DHT22;3564;53.326;10.356;2023-11-19T06:24:38;12.00;99.90
7046;DHT22;3564;53.326;10.356;2023-11-19T06:27:03;12.00;99.90
7046;DHT22;3564;53.326;10.356;2023-11-19T06:29:29;12.00;99.90
7046;DHT22;3564;53.326;10.356;2023-11-19T06:31:55;12.00;99.90
7046;DHT22;3564;53.326;10.356;2023-11-19T06:34:20;12.00;99.90
7046;DHT22;3564;53.326;10.356;2023-11-19T06:36:46;12.10;99.90
7046;DHT22;3564;53.326;10.356;2023-11-19T06:39:12;12.10;99.90
7046;DHT22;3564;53.326;10.356;2023-11-19T06:41:37;12.10;99.90
7046;DHT22;3564;53.326;10.356;2023-11-19T06:44:10;12.20;99.90
7046;DHT22;3564;53.326;10.356;2023-11-19T06:46:35;12.20;99.90
7046;DHT22;3564;53.326;10.356;2023-11-19T06:49:01;12.30;99.90
7046;DHT22;3564;53.326;10.356;2023-11-19T06:51:26;12.30;99.90
7046;DHT22;3564;53.326;10.356;2023-11-19T06:53:53;12.40;99.90
7046;DHT22;3564;53.326;10.356;2023-11-19T06:56:22;12.40;99.90
7046;DHT22;3564;53.326;10.356;2023-11-19T06:58:52;12.50;99.90
7046;DHT22;3564;53.326;10.356;2023-11-19T07:01:18;12.60;99.90
7046;DHT22;3564;53.326;10.356;2023-11-19T07:03:47;12.70;99.90
7046;DHT22;3564;53.326;10.356;2023-11-19T07:06:13;12.70;99.90
7046;DHT22;3564;53.326;10.356;2023-11-19T07:08:41;12.80;99.90
7046;DHT22;3564;53.326;10.356;2023-11-19T07:11:06;12.80;99.90
7046;DHT22;3564;53.326;10.356;2023-11-19T07:13:32;12.90;99.90
7046;DHT22;3564;53.326;10.356;2023-11-19T07:15:59;12.90;99.90
7046;DHT22;3564;53.326;10.356;2023-11-19T07:18:25;13.00;99.90
7046;DHT22;3564;53.326;10.356;2023-11-19T07:20:50;13.10;99.90
7046;DHT22;3564;53.326;10.356;2023-11-19T07:23:16;13.10;99.90
7046;DHT22;3564;53.326;10.356;2023-11-19T07:25:45;13.10;99.90
7046;DHT22;3564;53.326;10.356;2023-11-19T07:28:13;13.20;99.90
7046;DHT22;3564;53.326;10.356;2023-11-19T07:30:38;13.20;99.90
7046;DHT22;3564;53.326;10.356;2023-11-19T07:33:04;13.20;99.90
7046;DHT22;3564;53.326;10.356;2023-11-19T07:35:31;13.30;99.90
7046;DHT22;3564;53.326;10.356;2023-11-19T07:37:57;13.30;99.90
7046;DHT22;3564;53.326;10.356;2023-11-19T07:40:26;13.30;99.90
7046;DHT22;3564;53.326;10.356;2023-11-19T07:42:52;13.40;99.90
7046;DHT22;3564;53.326;10.356;2023-11-19T07:45:17;13.40;99.90
7046;DHT22;3564;53.326;10.356;2023-11-19T07:47:43;13.40;99.90
7046;DHT22;3564;53.326;10.356;2023-11-19T07:50:11;13.50;99.90
7046;DHT22;3564;53.326;10.356;2023-11-19T07:52:39;13.50;99.90
7046;DHT22;3564;53.326;10.356;2023-11-19T07:55:05;13.50;99.90
7046;DHT22;3564;53.326;10.356;2023-11-19T07:57:31;13.50;99.90
7046;DHT22;3564;53.326;10.356;2023-11-19T07:59:57;13.50;99.90
7046;DHT22;3564;53.326;10.356;2023-11-19T08:02:22;13.50;99.90
7046;DHT22;3564;53.326;10.356;2023-11-19T08:04:50;13.60;99.90
7046;DHT22;3564;53.326;10.356;2023-11-19T08:07:18;13.60;99.90
7046;DHT22;3564;53.326;10.356;2023-11-19T08:09:44;13.70;99.90
7046;DHT22;3564;53.326;10.356;2023-11-19T08:12:10;13.70;99.90
7046;DHT22;3564;53.326;10.356;2023-11-19T08:14:36;13.70;99.90
7046;DHT22;3564;53.326;10.356;2023-11-19T08:17:03;13.80;99.90
7046;DHT22;3564;53.326;10.356;2023-11-19T08:19:29;13.80;99.90
7046;DHT22;3564;53.326;10.356;2023-11-19T08:21:55;13.80;99.90
7046;DHT22;3564;53.326;10.356;2023-11-19T08:24:21;13.80;99.90
7046;DHT22;3564;53.326;10.356;2023-11-19T08:26:46;13.80;99.90
7046;DHT22;3564;53.326;10.356;2023-11-19T08:29:12;13.80;99.90
7046;DHT22;3564;53.326;10.356;2023-11-19T08:31:38;13.80;99.90
7046;DHT22;3564;53.326;10.356;2023-11-19T08:34:04;13.80;99.90
7046;DHT22;3564;53.326;10.356;2023-11-19T08:36:34;13.80;99.90
7046;DHT22;3564;53.326;10.356;2023-11-19T08:38:59;13.90;99.90
7046;DHT22;3564;53.326;10.356;2023-11-19T08:41:25;13.90;99.90
7046;DHT22;3564;53.326;10.356;2023-11-19T08:43:51;13.90;99.90
7046;DHT22;3564;53.326;10.356;2023-11-19T08:46:17;13.90;99.90
7046;DHT22;3564;53.326;10.356;2023-11-19T08:48:42;13.90;99.90
7046;DHT22;3564;53.326;10.356;2023-11-19T08:51:08;13.90;99.90
7046;DHT22;3564;53.326;10.356;2023-11-19T08:53:34;13.90;99.90
7046;DHT22;3564;53.326;10.356;2023-11-19T08:55:59;13.90;99.90
7046;DHT22;3564;53.326;10.356;2023-11-19T08:58:26;14.00;99.90
7046;DHT22;3564;53.326;10.356;2023-11-19T09:00:52;14.00;99.90
7046;DHT22;3564;53.326;10.356;2023-11-19T09:03:17;14.00;99.90
7046;DHT22;3564;53.326;10.356;2023-11-19T09:05:43;14.00;99.90
7046;DHT22;3564;53.326;10.356;2023-11-19T09:08:08;14.00;99.90
7046;DHT22;3564;53.326;10.356;2023-11-19T09:10:34;13.90;99.90
7046;DHT22;3564;53.326;10.356;2023-11-19T09:12:59;14.00;99.90
7046;DHT22;3564;53.326;10.356;2023-11-19T09:15:25;14.00;99.90
7046;DHT22;3564;53.326;10.356;2023-11-19T09:17:50;14.00;99.90
7046;DHT22;3564;53.326;10.356;2023-11-19T09:20:19;14.00;99.90
7046;DHT22;3564;53.326;10.356;2023-11-19T09:22:44;14.10;99.90
7046;DHT22;3564;53.326;10.356;2023-11-19T09:25:10;14.10;99.90
7046;DHT22;3564;53.326;10.356;2023-11-19T09:27:35;14.10;99.90
7046;DHT22;3564;53.326;10.356;2023-11-19T09:30:01;14.10;99.90
7046;DHT22;3564;53.326;10.356;2023-11-19T09:32:26;14.10;99.90
7046;DHT22;3564;53.326;10.356;2023-11-19T09:34:52;14.20;99.90
7046;DHT22;3564;53.326;10.356;2023-11-19T09:37:17;14.20;99.90
7046;DHT22;3564;53.326;10.356;2023-11-19T09:39:43;14.20;99.90
7046;DHT22;3564;53.326;10.356;2023-11-19T09:42:09;14.20;99.90
7046;DHT22;3564;53.326;10.356;2023-11-19T09:44:38;14.20;99.90
7046;DHT22;3564;53.326;10.356;2023-11-19T09:47:06;14.20;99.90
7046;DHT22;3564;53.326;10.356;2023-11-19T09:49:33;14.20;99.90
7046;DHT22;3564;53.326;10.356;2023-11-19T09:52:00;14.20;99.90
7046;DHT22;3564;53.326;10.356;2023-11-19T09:54:25;14.20;99.90
7046;DHT22;3564;53.326;10.356;2023-11-19T09:56:51;14.20;99.90
7046;DHT22;3564;53.326;10.356;2023-11-19T09:59:17;14.20;99.90
7046;DHT22;3564;53.326;10.356;2023-11-19T10:01:45;14.20;99.90
7046;DHT22;3564;53.326;10.356;2023-11-19T10:04:14;14.20;99.90
7046;DHT22;3564;53.326;10.356;2023-11-19T10:06:42;14.20;99.90
7046;DHT22;3564;53.326;10.356;2023-11-19T10:09:07;14.20;99.90
7046;DHT22;3564;53.326;10.356;2023-11-19T10:11:33;14.20;99.90
7046;DHT22;3564;53.326;10.356;2023-11-19T10:13:59;14.20;99.90
7046;DHT22;3564;53.326;10.356;2023-11-19T10:16:29;14.20;99.90
7046;DHT22;3564;53.326;10.356;2023-11-19T10:18:58;14.20;99.90
7046;DHT22;3564;53.326;10.356;2023-11-19T10:21:24;14.20;99.90
7046;DHT22;3564;53.326;10.356;2023-11-19T10:23:54;14.30;99.90
7046;DHT22;3564;53.326;10.356;2023-11-19T10:26:23;14.30;99.90
7046;DHT22;3564;53.326;10.356;2023-11-19T10:28:49;14.30;99.90
7046;DHT22;3564;53.326;10.356;2023-11-19T10:31:16;14.30;99.90
7046;DHT22;3564;53.326;10.356;2023-11-19T10:33:42;14.30;99.90
7046;DHT22;3564;53.326;10.356;2023-11-19T10:36:13;14.40;99.90
7046;DHT22;3564;53.326;10.356;2023-11-19T10:38:39;14.40;99.90
7046;DHT22;3564;53.326;10.356;2023-11-19T10:41:06;14.40;99.90
7046;DHT22;3564;53.326;10.356;2023-11-19T10:43:32;14.40;99.90
7046;DHT22;3564;53.326;10.356;2023-11-19T10:46:13;14.50;99.90
7046;DHT22;3564;53.326;10.356;2023-11-19T10:48:39;14.50;99.90
7046;DHT22;3564;53.326;10.356;2023-11-19T10:51:06;14.60;99.90
7046;DHT22;3564;53.326;10.356;2023-11-19T10:53:37;14.70;99.90
7046;DHT22;3564;53.326;10.356;2023-11-19T10:56:12;14.70;99.90
7046;DHT22;3564;53.326;10.356;2023-11-19T10:58:45;14.70;99.90
7046;DHT22;3564;53.326;10.356;2023-11-19T11:01:18;14.70;99.90
7046;DHT22;3564;53.326;10.356;2023-11-19T11:03:46;14.70;99.90
7046;DHT22;3564;53.326;10.356;2023-11-19T11:06:13;14.70;99.90
7046;DHT22;3564;53.326;10.356;2023-11-19T11:08:39;14.80;99.90
7046;DHT22;3564;53.326;10.356;2023-11-19T11:11:07;14.80;99.90
7046;DHT22;3564;53.326;10.356;2023-11-19T11:13:33;14.80;99.90
7046;DHT22;3564;53.326;10.356;2023-11-19T11:16:00;14.70;99.90
7046;DHT22;3564;53.326;10.356;2023-11-19T11:18:26;14.70;99.90
7046;DHT22;3564;53.326;10.356;2023-11-19T11:21:22;14.80;99.90
7046;DHT22;3564;53.326;10.356;2023-11-19T11:23:56;14.80;99.90
7046;DHT22;3564;53.326;10.356;2023-11-19T11:29:10;14.80;99.90
7046;DHT22;3564;53.326;10.356;2023-11-19T11:31:53;14.80;99.90
7046;DHT22;3564;53.326;10.356;2023-11-19T11:39:50;14.80;99.90
7046;DHT22;3564;53.326;10.356;2023-11-19T11:50:17;14.90;99.90
7046;DHT22;3564;53.326;10.356;2023-11-19T11:58:25;14.90;99.90
7046;DHT22;3564;53.326;10.356;2023-11-19T12:00:51;14.90;99.90
7046;DHT22;3564;53.326;10.356;2023-11-19T12:03:20;14.90;99.90
7046;DHT22;3564;53.326;10.356;2023-11-19T12:05:49;15.00;99.90
7046;DHT22;3564;53.326;10.356;2023-11-19T12:08:18;15.00;99.90
7046;DHT22;3564;53.326;10.356;2023-11-19T12:10:53;15.00;99.90
7046;DHT22;3564;53.326;10.356;2023-11-19T12:13:20;15.00;99.90
7046;DHT22;3564;53.326;10.356;2023-11-19T12:18:27;15.00;99.90
7046;DHT22;3564;53.326;10.356;2023-11-19T12:20:53;15.00;99.90
7046;DHT22;3564;53.326;10.356;2023-11-19T12:23:18;15.00;99.90
7046;DHT22;3564;53.326;10.356;2023-11-19T12:25:44;15.00;99.90
7046;DHT22;3564;53.326;10.356;2023-11-19T12:28:17;15.00;99.90
7046;DHT22;3564;53.326;10.356;2023-11-19T12:30:43;15.00;99.90
7046;DHT22;3564;53.326;10.356;2023-11-19T12:33:12;15.00;99.90
7046;DHT22;3564;53.326;10.356;2023-11-19T12:35:43;14.90;99.90
7046;DHT22;3564;53.326;10.356;2023-11-19T12:38:22;14.90;99.90
7046;DHT22;3564;53.326;10.356;2023-11-19T12:41:06;14.90;99.90
7046;DHT22;3564;53.326;10.356;2023-11-19T12:43:32;14.90;99.90
7046;DHT22;3564;53.326;10.356;2023-11-19T12:46:00;15.00;99.90
7046;DHT22;3564;53.326;10.356;2023-11-19T12:48:25;15.00;99.90
7046;DHT22;3564;53.326;10.356;2023-11-19T12:50:58;15.00;99.90
7046;DHT22;3564;53.326;10.356;2023-11-19T12:53:26;15.00;99.90
7046;DHT22;3564;53.326;10.356;2023-11-19T12:55:53;15.00;99.90
7046;DHT22;3564;53.326;10.356;2023-11-19T12:58:32;15.00;99.90
7046;DHT22;3564;53.326;10.356;2023-11-19T13:01:14;14.90;99.90
7046;DHT22;3564;53.326;10.356;2023-11-19T13:03:41;14.90;99.90
7046;DHT22;3564;53.326;10.356;2023-11-19T13:06:09;14.90;99.90
7046;DHT22;3564;53.326;10.356;2023-11-19T13:08:38;14.90;99.90
7046;DHT22;3564;53.326;10.356;2023-11-19T13:11:04;14.90;99.90
7046;DHT22;3564;53.326;10.356;2023-11-19T13:13:32;14.90;99.90
7046;DHT22;3564;53.326;10.356;2023-11-19T13:16:04;14.90;99.90
7046;DHT22;3564;53.326;10.356;2023-11-19T13:18:31;15.00;99.90
7046;DHT22;3564;53.326;10.356;2023-11-19T13:20:56;15.00;99.90
7046;DHT22;3564;53.326;10.356;2023-11-19T13:23:25;15.10;99.90
7046;DHT22;3564;53.326;10.356;2023-11-19T13:25:50;15.10;99.90
7046;DHT22;3564;53.326;10.356;2023-11-19T13:28:16;15.10;99.90
7046;DHT22;3564;53.326;10.356;2023-11-19T13:30:41;15.10;99.90
7046;DHT22;3564;53.326;10.356;2023-11-19T13:33:07;15.10;99.90
7046;DHT22;3564;53.326;10.356;2023-11-19T13:35:33;15.10;99.90
7046;DHT22;3564;53.326;10.356;2023-11-19T13:37:58;15.10;99.90
7046;DHT22;3564;53.326;10.356;2023-11-19T13:40:24;15.10;99.90
7046;DHT22;3564;53.326;10.356;2023-11-19T13:42:50;15.00;99.90
7046;DHT22;3564;53.326;10.356;2023-11-19T13:45:16;15.00;99.90
7046;DHT22;3564;53.326;10.356;2023-11-19T13:47:45;15.00;99.90
7046;DHT22;3564;53.326;10.356;2023-11-19T13:50:12;14.90;99.90
7046;DHT22;3564;53.326;10.356;2023-11-19T13:52:38;14.90;99.90
7046;DHT22;3564;53.326;10.356;2023-11-19T13:55:08;14.80;99.90
7046;DHT22;3564;53.326;10.356;2023-11-19T13:57:43;14.80;99.90
7046;DHT22;3564;53.326;10.356;2023-11-19T14:00:13;14.80;99.90
7046;DHT22;3564;53.326;10.356;2023-11-19T14:02:42;14.70;99.90
7046;DHT22;3564;53.326;10.356;2023-11-19T14:05:09;14.70;99.90
7046;DHT22;3564;53.326;10.356;2023-11-19T14:07:34;14.70;99.90
7046;DHT22;3564;53.326;10.356;2023-11-19T14:10:00;14.70;99.90
7046;DHT22;3564;53.326;10.356;2023-11-19T14:12:25;14.80;99.90
7046;DHT22;3564;53.326;10.356;2023-11-19T14:14:51;14.70;99.90
7046;DHT22;3564;53.326;10.356;2023-11-19T14:17:17;14.70;99.90
7046;DHT22;3564;53.326;10.356;2023-11-19T14:19:43;14.70;99.90
7046;DHT22;3564;53.326;10.356;2023-11-19T14:22:10;14.80;99.90
7046;DHT22;3564;53.326;10.356;2023-11-19T14:24:35;14.80;99.90
7046;DHT22;3564;53.326;10.356;2023-11-19T14:27:02;14.70;99.90
7046;DHT22;3564;53.326;10.356;2023-11-19T14:29:27;14.80;99.90
7046;DHT22;3564;53.326;10.356;2023-11-19T14:31:56;14.70;99.90
7046;DHT22;3564;53.326;10.356;2023-11-19T14:34:22;14.70;99.90
7046;DHT22;3564;53.326;10.356;2023-11-19T14:36:48;14.70;99.90
7046;DHT22;3564;53.326;10.356;2023-11-19T14:39:15;14.70;99.90
7046;DHT22;3564;53.326;10.356;2023-11-19T14:41:40;14.70;99.90
7046;DHT22;3564;53.326;10.356;2023-11-19T14:44:06;14.70;99.90
7046;DHT22;3564;53.326;10.356;2023-11-19T14:46:32;14.70;99.90
7046;DHT22;3564;53.326;10.356;2023-11-19T14:48:57;14.70;99.90
7046;DHT22;3564;53.326;10.356;2023-11-19T14:51:24;14.70;99.90
7046;DHT22;3564;53.326;10.356;2023-11-19T14:53:49;14.70;99.90
7046;DHT22;3564;53.326;10.356;2023-11-19T14:56:15;14.70;99.90
7046;DHT22;3564;53.326;10.356;2023-11-19T14:58:41;14.60;99.90
7046;DHT22;3564;53.326;10.356;2023-11-19T15:01:12;14.60;99.90
7046;DHT22;3564;53.326;10.356;2023-11-19T15:03:37;14.70;99.90
7046;DHT22;3564;53.326;10.356;2023-11-19T15:06:03;14.60;99.90
7046;DHT22;3564;53.326;10.356;2023-11-19T15:08:28;14.60;99.90
7046;DHT22;3564;53.326;10.356;2023-11-19T15:10:55;14.60;99.90
7046;DHT22;3564;53.326;10.356;2023-11-19T15:13:23;14.60;99.90
7046;DHT22;3564;53.326;10.356;2023-11-19T15:15:48;14.60;99.90
7046;DHT22;3564;53.326;10.356;2023-11-19T15:18:14;14.50;99.90
7046;DHT22;3564;53.326;10.356;2023-11-19T15:20:39;14.50;99.90
7046;DHT22;3564;53.326;10.356;2023-11-19T15:23:05;14.50;99.90
7046;DHT22;3564;53.326;10.356;2023-11-19T15:25:31;14.40;99.90
7046;DHT22;3564;53.326;10.356;2023-11-19T15:27:56;14.40;99.90
7046;DHT22;3564;53.326;10.356;2023-11-19T15:30:22;14.30;99.90
7046;DHT22;3564;53.326;10.356;2023-11-19T15:32:47;14.30;99.90
7046;DHT22;3564;53.326;10.356;2023-11-19T15:35:13;14.30;99.90
7046;DHT22;3564;53.326;10.356;2023-11-19T15:37:39;14.30;99.90
7046;DHT22;3564;53.326;10.356;2023-11-19T15:40:07;14.30;99.90
7046;DHT22;3564;53.326;10.356;2023-11-19T15:42:34;14.20;99.90
7046;DHT22;3564;53.326;10.356;2023-11-19T15:45:00;14.30;99.90
7046;DHT22;3564;53.326;10.356;2023-11-19T15:47:25;14.20;99.90
7046;DHT22;3564;53.326;10.356;2023-11-19T15:49:51;14.20;99.90
7046;DHT22;3564;53.326;10.356;2023-11-19T15:52:17;14.20;99.90
7046;DHT22;3564;53.326;10.356;2023-11-19T15:54:42;14.10;99.90
7046;DHT22;3564;53.326;10.356;2023-11-19T15:57:11;14.10;99.90
7046;DHT22;3564;53.326;10.356;2023-11-19T15:59:37;14.10;99.90
7046;DHT22;3564;53.326;10.356;2023-11-19T16:02:03;14.10;99.90
7046;DHT22;3564;53.326;10.356;2023-11-19T16:04:30;14.00;99.90
7046;DHT22;3564;53.326;10.356;2023-11-19T16:06:55;14.00;99.90
7046;DHT22;3564;53.326;10.356;2023-11-19T16:09:21;14.00;99.90
7046;DHT22;3564;53.326;10.356;2023-11-19T16:11:48;14.00;99.90